Time;durP1;ratioP1;P1;durP2;ratioP2;P2;SDS_P1;SDS_P2;PMS_P1;PMS_P2;Temp;Humidity;BMP_temperature;BMP_pressure;BME280_temperature;BME280_humidity;BME280_pressure;Samples;Min_cycle;Max_cycle;Signal;HPM_P1;HPM_P2
2023/07/23 00:01:04;;;;;;;31.40;13.07;;;15.10;99.90;;;;;;4964806;28;20047;-80
2023/07/23 00:03:30;;;;;;;21.38;12.65;;;15.00;99.90;;;;;;4970385;28;20069;-79
2023/07/23 00:05:56;;;;;;;31.90;13.48;;;14.80;99.90;;;;;;4971969;28;20039;-78
2023/07/23 00:08:21;;;;;;;27.50;13.10;;;14.50;99.90;;;;;;4950744;28;20107;-79
2023/07/23 00:10:47;;;;;;;29.27;14.45;;;15.50;99.90;;;;;;4977278;28;20412;-81
2023/07/23 00:13:13;;;;;;;22.25;11.23;;;15.00;99.90;;;;;;4981662;28;20051;-82
2023/07/23 00:15:39;;;;;;;29.75;13.75;;;14.70;99.90;;;;;;4978049;28;20531;-81
2023/07/23 00:18:04;;;;;;;31.88;15.95;;;14.70;99.90;;;;;;4958623;28;20186;-80
2023/07/23 00:20:30;;;;;;;28.45;14.35;;;15.20;99.90;;;;;;4957079;28;20089;-78
2023/07/23 00:22:56;;;;;;;28.15;15.00;;;15.20;99.90;;;;;;4946274;28;20057;-77
2023/07/23 00:25:21;;;;;;;28.05;13.68;;;15.00;99.90;;;;;;4973854;28;20487;-76
2023/07/23 00:27:47;;;;;;;29.73;14.57;;;14.50;99.90;;;;;;4972169;28;20401;-76
2023/07/23 00:30:13;;;;;;;34.47;15.75;;;14.70;99.90;;;;;;4985696;28;20070;-75
2023/07/23 00:32:38;;;;;;;28.52;15.20;;;15.00;99.90;;;;;;4965384;28;20034;-76
2023/07/23 00:35:04;;;;;;;33.40;16.05;;;15.10;99.90;;;;;;4957826;28;20551;-76
2023/07/23 00:37:31;;;;;;;32.63;14.65;;;14.80;99.90;;;;;;4967276;28;20511;-77
2023/07/23 00:39:57;;;;;;;39.78;18.75;;;14.70;99.90;;;;;;4968770;28;20086;-78
2023/07/23 00:42:23;;;;;;;29.83;16.70;;;15.40;99.90;;;;;;4962826;28;20043;-80
2023/07/23 00:44:48;;;;;;;33.17;17.50;;;14.50;99.90;;;;;;4956572;28;20039;-80
2023/07/23 00:47:15;;;;;;;31.08;16.52;;;14.70;99.90;;;;;;4974559;28;20042;-82
2023/07/23 00:49:44;;;;;;;30.92;14.73;;;14.60;99.90;;;;;;4981204;28;20034;-82
2023/07/23 00:52:11;;;;;;;25.25;14.65;;;15.20;99.90;;;;;;4976898;28;20050;-83
2023/07/23 00:54:36;;;;;;;36.35;17.58;;;14.70;99.90;;;;;;4983027;28;20077;-81
2023/07/23 00:57:04;;;;;;;34.08;15.18;;;15.00;99.90;;;;;;4972382;28;20062;-80
2023/07/23 00:59:32;;;;;;;32.60;16.65;;;14.80;99.90;;;;;;4970767;28;20035;-79
2023/07/23 01:01:58;;;;;;;25.27;13.48;;;14.20;99.90;;;;;;4966642;28;20098;-78
2023/07/23 01:04:25;;;;;;;23.98;12.27;;;14.30;1.00;;;;;;4955215;28;20035;-76
2023/07/23 01:06:51;;;;;;;24.42;11.50;;;;;;;;;;4964590;28;20086;-76
2023/07/23 01:09:20;;;;;;;33.30;13.15;;;14.80;1.00;;;;;;4955550;28;20042;-76
2023/07/23 01:11:45;;;;;;;27.50;13.27;;;15.20;1.00;;;;;;4986826;28;20490;-75
2023/07/23 01:14:11;;;;;;;24.35;11.63;;;15.10;1.00;;;;;;4965306;28;20134;-75
2023/07/23 01:16:37;;;;;;;25.23;11.95;;;14.80;1.00;;;;;;4966087;28;20038;-76
2023/07/23 01:19:03;;;;;;;25.38;12.98;;;14.70;1.00;;;;;;4972209;28;20045;-79
2023/07/23 01:21:29;;;;;;;22.08;12.55;;;14.70;1.00;;;;;;4972907;28;20042;-78
2023/07/23 01:23:55;;;;;;;24.08;12.43;;;15.10;1.00;;;;;;4969574;28;20035;-78
2023/07/23 01:26:21;;;;;;;29.38;14.40;;;14.40;1.00;;;;;;4959152;28;20049;-78
2023/07/23 01:28:47;;;;;;;22.58;11.70;;;15.30;1.00;;;;;;4965353;28;20043;-77
2023/07/23 01:31:12;;;;;;;24.52;11.30;;;15.30;1.00;;;;;;4949915;28;20035;-75
2023/07/23 01:33:41;;;;;;;27.52;14.00;;;14.70;1.00;;;;;;4968657;28;20038;-76
2023/07/23 01:36:07;;;;;;;28.02;13.45;;;14.70;1.00;;;;;;4971329;28;20042;-76
2023/07/23 01:38:33;;;;;;;25.27;11.95;;;14.30;1.00;;;;;;4968123;28;20047;-76
2023/07/23 01:41:00;;;;;;;27.15;12.48;;;15.80;1.00;;;;;;4959927;28;20078;-76
2023/07/23 01:43:27;;;;;;;22.98;10.38;;;14.10;1.00;;;;;;4963962;28;20094;-79
2023/07/23 01:45:52;;;;;;;21.73;11.50;;;15.40;1.00;;;;;;4971182;28;20042;-78
2023/07/23 01:48:20;;;;;;;21.83;11.00;;;15.30;1.00;;;;;;4971978;28;20155;-77
2023/07/23 01:50:46;;;;;;;23.05;11.82;;;14.40;1.00;;;;;;4965034;28;20081;-77
2023/07/23 01:53:11;;;;;;;23.70;12.50;;;14.50;1.00;;;;;;4991387;28;20090;-77
2023/07/23 01:55:37;;;;;;;22.80;11.18;;;15.50;1.00;;;;;;4970540;28;20030;-76
2023/07/23 01:58:03;;;;;;;22.67;11.00;;;15.10;1.00;;;;;;4970434;28;20400;-76
2023/07/23 02:00:28;;;;;;;24.33;11.25;;;15.30;1.00;;;;;;4976103;28;20464;-75
2023/07/23 02:02:54;;;;;;;22.52;11.13;;;15.00;1.00;;;;;;4962652;28;20056;-75
2023/07/23 02:05:23;;;;;;;23.70;11.07;;;15.10;1.00;;;;;;4965051;28;20043;-75
2023/07/23 02:07:48;;;;;;;20.60;10.48;;;15.10;1.00;;;;;;4962419;28;20043;-77
2023/07/23 02:10:17;;;;;;;21.88;10.68;;;15.10;1.00;;;;;;4973784;28;20413;-80
2023/07/23 02:12:43;;;;;;;26.00;12.50;;;15.20;1.00;;;;;;4949230;28;20042;-83
2023/07/23 02:15:09;;;;;;;22.40;11.43;;;15.00;1.00;;;;;;4954024;28;20035;-83
2023/07/23 02:17:35;;;;;;;25.52;12.65;;;14.50;1.00;;;;;;4954289;28;20093;-84
2023/07/23 02:20:01;;;;;;;24.85;12.85;;;14.80;1.00;;;;;;4953856;28;20038;-85
2023/07/23 02:22:26;;;;;;;28.45;12.70;;;15.30;1.00;;;;;;4964820;28;20034;-84
2023/07/23 02:24:52;;;;;;;26.48;12.50;;;14.80;1.00;;;;;;4970435;28;20396;-82
2023/07/23 02:27:18;;;;;;;26.45;12.27;;;14.60;1.00;;;;;;4961622;28;20031;-80
2023/07/23 02:29:44;;;;;;;21.35;11.77;;;14.50;1.00;;;;;;4965637;28;20041;-79
2023/07/23 02:32:10;;;;;;;30.90;14.75;;;15.10;1.00;;;;;;4974879;28;20042;-77
2023/07/23 02:34:35;;;;;;;28.05;13.07;;;14.90;1.00;;;;;;4966599;28;20056;-77
2023/07/23 02:37:01;;;;;;;22.70;11.07;;;14.60;1.00;;;;;;4967522;28;20043;-77
2023/07/23 02:39:27;;;;;;;25.95;13.02;;;14.60;1.00;;;;;;4964194;28;20039;-76
2023/07/23 02:41:52;;;;;;;21.70;10.98;;;15.20;1.00;;;;;;4975115;28;20516;-76
2023/07/23 02:44:18;;;;;;;22.73;12.15;;;15.20;1.00;;;;;;4976100;28;20030;-76
2023/07/23 02:46:44;;;;;;;24.02;12.35;;;15.70;1.00;;;;;;4969643;28;20051;-76
2023/07/23 02:49:09;;;;;;;17.23;9.48;;;14.70;1.00;;;;;;4977675;28;20035;-76
2023/07/23 02:51:35;;;;;;;21.63;10.95;;;14.10;1.00;;;;;;4971286;28;20393;-76
2023/07/23 02:54:01;;;;;;;24.80;11.80;;;13.90;1.00;;;;;;4971955;28;20070;-76
2023/07/23 02:56:26;;;;;;;19.23;11.20;;;15.40;1.00;;;;;;4973903;28;20038;-76
2023/07/23 02:58:52;;;;;;;18.08;9.95;;;14.80;1.00;;;;;;4969271;28;20197;-76
2023/07/23 03:01:19;;;;;;;22.58;10.75;;;14.20;1.00;;;;;;4965280;28;20046;-77
2023/07/23 03:03:47;;;;;;;25.30;12.68;;;14.60;1.00;;;;;;4966178;28;20051;-77
2023/07/23 03:06:13;;;;;;;30.52;13.98;;;14.40;1.00;;;;;;4972045;28;20042;-78
2023/07/23 03:08:39;;;;;;;22.10;12.68;;;14.50;1.00;;;;;;4969648;28;20050;-79
2023/07/23 03:11:06;;;;;;;21.92;11.27;;;14.20;1.00;;;;;;4967919;28;20051;-80
2023/07/23 03:13:31;;;;;;;22.30;12.23;;;14.80;1.00;;;;;;4967116;28;20559;-80
2023/07/23 03:15:57;;;;;;;20.23;10.80;;;14.60;1.00;;;;;;4958687;28;20039;-84
2023/07/23 03:18:22;;;;;;;25.17;12.82;;;14.20;1.00;;;;;;4968959;28;20082;-87
2023/07/23 03:20:48;;;;;;;24.17;12.95;;;14.20;1.00;;;;;;4956196;28;20050;-88
2023/07/23 03:23:14;;;;;;;17.50;11.07;;;15.10;1.00;;;;;;4953882;28;20054;-87
2023/07/23 03:25:40;;;;;;;23.42;12.95;;;14.60;1.00;;;;;;4951905;28;20039;-87
2023/07/23 03:28:05;;;;;;;20.77;11.70;;;14.50;1.00;;;;;;4959218;28;20074;-83
2023/07/23 03:30:31;;;;;;;22.75;12.38;;;14.00;1.00;;;;;;4967614;28;20496;-84
2023/07/23 03:32:56;;;;;;;24.90;12.88;;;14.70;1.00;;;;;;4962652;28;20134;-85
2023/07/23 03:35:22;;;;;;;22.20;12.63;;;14.30;1.00;;;;;;4964249;28;20039;-86
2023/07/23 03:37:48;;;;;;;22.88;12.73;;;14.70;1.00;;;;;;4963850;28;20046;-84
2023/07/23 03:40:14;;;;;;;26.15;14.35;;;14.90;1.00;;;;;;4967008;28;20046;-85
2023/07/23 03:42:40;;;;;;;24.30;11.52;;;15.00;1.00;;;;;;4970390;28;20039;-85
2023/07/23 03:45:06;;;;;;;24.02;12.50;;;14.60;1.00;;;;;;4974525;28;20050;-85
2023/07/23 03:47:32;;;;;;;28.35;14.32;;;15.10;1.00;;;;;;4965216;28;20037;-85
2023/07/23 03:49:57;;;;;;;23.63;12.55;;;14.30;1.00;;;;;;4971045;28;20050;-85
2023/07/23 03:52:23;;;;;;;28.90;12.77;;;14.50;1.00;;;;;;4952699;28;20046;-86
2023/07/23 03:54:49;;;;;;;22.90;12.68;;;15.40;1.00;;;;;;4970621;28;20035;-82
2023/07/23 03:57:15;;;;;;;24.88;12.95;;;15.00;1.00;;;;;;4956423;28;20035;-82
2023/07/23 03:59:43;;;;;;;26.17;12.95;;;14.50;1.00;;;;;;4992288;28;20031;-82
2023/07/23 04:02:09;;;;;;;25.95;13.00;;;14.20;1.00;;;;;;4966174;28;20504;-83
2023/07/23 04:04:36;;;;;;;26.73;13.32;;;14.80;1.00;;;;;;4966317;28;20073;-83
2023/07/23 04:07:02;;;;;;;24.35;13.18;;;14.60;1.00;;;;;;4972855;28;20047;-84
2023/07/23 04:09:28;;;;;;;23.27;11.77;;;14.80;1.00;;;;;;4948750;28;20122;-84
2023/07/23 04:11:55;;;;;;;21.67;11.98;;;14.50;1.00;;;;;;4972986;28;20080;-82
2023/07/23 04:14:21;;;;;;;23.25;11.75;;;15.00;1.00;;;;;;4977252;28;20143;-82
2023/07/23 04:16:47;;;;;;;24.67;12.45;;;14.60;1.00;;;;;;4967336;28;20401;-83
2023/07/23 04:19:14;;;;;;;22.17;11.48;;;14.70;1.00;;;;;;4970000;28;20034;-81
2023/07/23 04:21:39;;;;;;;22.42;12.23;;;14.40;1.00;;;;;;4970223;28;20599;-82
2023/07/23 04:24:05;;;;;;;23.60;12.68;;;14.20;1.00;;;;;;4979915;28;20070;-82
2023/07/23 04:26:31;;;;;;;21.98;12.80;;;14.80;1.00;;;;;;4984363;28;20049;-83
2023/07/23 04:28:57;;;;;;;27.50;14.32;;;14.60;1.00;;;;;;4977307;28;20156;-84
2023/07/23 04:31:23;;;;;;;20.77;12.15;;;15.50;99.90;;;;;;4983741;28;20405;-85
2023/07/23 04:33:49;;;;;;;21.38;12.27;;;14.60;99.90;;;;;;4965977;28;20042;-86
2023/07/23 04:36:14;;;;;;;24.75;12.20;;;14.40;99.90;;;;;;4944009;28;20500;-86
2023/07/23 04:38:41;;;;;;;22.65;12.45;;;14.30;99.90;;;;;;4952543;28;20105;-85
2023/07/23 04:41:07;;;;;;;26.42;14.23;;;14.60;99.90;;;;;;4973867;28;20039;-85
2023/07/23 04:43:35;;;;;;;29.95;14.65;;;15.00;1.00;;;;;;4977009;28;20096;-85
2023/07/23 04:46:00;;;;;;;31.20;14.68;;;14.70;1.00;;;;;;4964975;28;20058;-84
2023/07/23 04:48:26;;;;;;;28.05;14.90;;;14.20;1.00;;;;;;4965243;28;20043;-84
2023/07/23 04:51:03;;;;;;;22.92;13.45;;;14.40;1.00;;;;;;4983807;28;20120;-82
2023/07/23 04:53:28;;;;;;;24.48;14.02;;;14.60;1.00;;;;;;4986879;28;20095;-81
2023/07/23 04:55:55;;;;;;;24.83;14.10;;;14.70;1.00;;;;;;4968682;28;20456;-80
2023/07/23 04:58:22;;;;;;;22.40;12.88;;;14.30;1.00;;;;;;4972217;28;20063;-79
2023/07/23 05:00:48;;;;;;;25.35;13.05;;;14.60;1.00;;;;;;4974498;28;20070;-78
2023/07/23 05:03:14;;;;;;;20.45;11.80;;;14.30;1.00;;;;;;4966709;28;20073;-78
2023/07/23 05:05:43;;;;;;;24.08;13.68;;;14.90;1.00;;;;;;4953906;28;20042;-78
2023/07/23 05:08:09;;;;;;;22.05;12.27;;;;;;;;;;4965405;28;20038;-78
2023/07/23 05:10:35;;;;;;;17.02;10.80;;;14.80;1.00;;;;;;4974198;28;20038;-77
2023/07/23 05:13:01;;;;;;;19.27;11.70;;;14.30;1.00;;;;;;4967449;28;20041;-78
2023/07/23 05:15:26;;;;;;;21.52;11.45;;;14.70;1.00;;;;;;4949939;28;20045;-78
2023/07/23 05:17:52;;;;;;;29.92;14.30;;;14.60;1.00;;;;;;4968285;28;20034;-77
2023/07/23 05:20:18;;;;;;;26.58;14.18;;;14.70;1.00;;;;;;4967478;28;20505;-77
2023/07/23 05:22:44;;;;;;;21.00;11.60;;;14.70;1.00;;;;;;4973849;28;20039;-78
2023/07/23 05:25:10;;;;;;;17.42;10.90;;;14.50;1.00;;;;;;4966597;28;20053;-78
2023/07/23 05:27:36;;;;;;;17.67;10.75;;;14.50;1.00;;;;;;4974735;28;20042;-79
2023/07/23 05:30:03;;;;;;;21.27;12.52;;;14.70;1.00;;;;;;4971179;28;20050;-79
2023/07/23 05:32:29;;;;;;;20.00;11.38;;;14.80;1.00;;;;;;4974770;28;20397;-79
2023/07/23 05:34:54;;;;;;;24.33;13.05;;;14.80;1.00;;;;;;4968187;28;20049;-78
2023/07/23 05:37:20;;;;;;;17.92;11.25;;;14.50;1.00;;;;;;4962551;28;20031;-77
2023/07/23 05:39:48;;;;;;;19.85;11.10;;;14.70;1.00;;;;;;4980582;28;20066;-78
2023/07/23 05:42:14;;;;;;;16.35;10.43;;;14.60;1.00;;;;;;4973684;28;20035;-80
2023/07/23 05:44:39;;;;;;;25.27;14.05;;;14.70;1.00;;;;;;4974367;28;20528;-80
2023/07/23 05:47:05;;;;;;;18.02;10.48;;;14.60;1.00;;;;;;4975451;28;20053;-83
2023/07/23 05:49:31;;;;;;;19.25;10.80;;;15.40;1.00;;;;;;4967547;28;20038;-84
2023/07/23 05:51:59;;;;;;;17.95;10.23;;;14.40;1.00;;;;;;4961839;28;20054;-84
2023/07/23 05:54:25;;;;;;;20.95;11.57;;;14.20;1.00;;;;;;4973774;28;20491;-83
2023/07/23 05:56:51;;;;;;;24.83;13.27;;;15.30;1.00;;;;;;4975392;28;20063;-81
2023/07/23 05:59:17;;;;;;;23.50;12.65;;;15.20;1.00;;;;;;4974369;28;20039;-80
2023/07/23 06:01:42;;;;;;;19.23;11.02;;;14.40;1.00;;;;;;4975506;28;20496;-79
2023/07/23 06:04:08;;;;;;;19.52;11.10;;;14.50;1.00;;;;;;4972657;28;20050;-78
2023/07/23 06:06:34;;;;;;;18.38;11.45;;;15.20;1.00;;;;;;4976242;28;20129;-77
2023/07/23 06:09:00;;;;;;;19.65;10.73;;;14.80;1.00;;;;;;4966826;28;20122;-76
2023/07/23 06:11:25;;;;;;;19.77;11.65;;;14.70;1.00;;;;;;4963109;28;20035;-76
2023/07/23 06:13:51;;;;;;;17.98;11.00;;;14.40;1.00;;;;;;4957479;28;20051;-76
2023/07/23 06:16:17;;;;;;;19.88;10.82;;;14.10;1.00;;;;;;4961941;28;20047;-75
2023/07/23 06:18:43;;;;;;;20.40;11.45;;;14.50;1.00;;;;;;4972623;28;20408;-76
2023/07/23 06:21:08;;;;;;;17.10;11.07;;;15.00;1.00;;;;;;4974436;28;20042;-76
2023/07/23 06:23:35;;;;;;;18.95;11.38;;;14.70;1.00;;;;;;4968900;28;20043;-77
2023/07/23 06:26:00;;;;;;;21.92;12.90;;;14.60;1.00;;;;;;4961610;28;20142;-78
2023/07/23 06:28:26;;;;;;;20.98;12.80;;;14.40;1.00;;;;;;4972665;28;20117;-76
2023/07/23 06:30:55;;;;;;;22.52;12.25;;;15.50;1.00;;;;;;4962739;28;20039;-76
2023/07/23 06:33:21;;;;;;;19.58;11.90;;;14.40;1.00;;;;;;4961345;28;20663;-77
2023/07/23 06:35:48;;;;;;;20.58;11.60;;;13.80;1.00;;;;;;4971294;28;20051;-76
2023/07/23 06:38:14;;;;;;;18.75;11.23;;;14.90;1.00;;;;;;4972012;28;20121;-78
2023/07/23 06:40:51;;;;;;;20.98;11.32;;;14.70;1.00;;;;;;4974672;28;20035;-79
2023/07/23 06:43:17;;;;;;;23.95;14.07;;;14.90;1.00;;;;;;4973474;28;20026;-82
2023/07/23 06:45:47;;;;;;;22.95;12.10;;;14.40;1.00;;;;;;4978496;28;20042;-81
2023/07/23 06:48:14;;;;;;;20.40;12.35;;;14.40;1.00;;;;;;4977633;28;20035;-81
2023/07/23 06:50:40;;;;;;;21.10;12.70;;;14.30;1.00;;;;;;4975240;28;20051;-81
2023/07/23 06:53:06;;;;;;;23.08;13.90;;;15.10;1.00;;;;;;4973128;28;20045;-79
2023/07/23 06:55:58;;;;;;;21.58;13.02;;;14.50;1.00;;;;;;4977040;28;20405;-78
2023/07/23 06:58:23;;;;;;;20.23;13.35;;;15.10;1.00;;;;;;4965317;28;20082;-77
2023/07/23 07:00:49;;;;;;;23.42;13.75;;;14.60;1.00;;;;;;4971956;28;20097;-77
2023/07/23 07:03:15;;;;;;;22.50;13.23;;;14.30;1.00;;;;;;4966399;28;20464;-78
2023/07/23 07:05:41;;;;;;;25.60;14.27;;;;;;;;;;4973468;28;20031;-79
2023/07/23 07:08:06;;;;;;;24.63;14.93;;;14.90;1.00;;;;;;4982890;28;20050;-80
2023/07/23 07:10:32;;;;;;;24.75;14.70;;;14.90;1.00;;;;;;4975225;28;20038;-81
2023/07/23 07:12:57;;;;;;;24.80;15.02;;;15.20;1.00;;;;;;4964815;28;20046;-85
2023/07/23 07:15:23;;;;;;;25.17;13.85;;;15.00;1.00;;;;;;4975187;28;20067;-86
2023/07/23 07:17:49;;;;;;;22.30;15.15;;;15.10;1.00;;;;;;4971940;28;20035;-82
2023/07/23 07:20:14;;;;;;;22.95;13.15;;;14.90;1.00;;;;;;4980652;28;20038;-82
2023/07/23 07:22:40;;;;;;;28.42;15.40;;;14.50;1.00;;;;;;4997280;28;20041;-82
2023/07/23 07:25:06;;;;;;;27.65;15.25;;;15.40;1.00;;;;;;4979398;28;20318;-80
2023/07/23 07:27:32;;;;;;;24.10;13.95;;;15.00;1.00;;;;;;4973078;28;20070;-81
2023/07/23 07:29:57;;;;;;;24.85;14.45;;;15.80;1.00;;;;;;4967894;28;20042;-83
2023/07/23 07:32:23;;;;;;;28.40;12.85;;;15.80;1.00;;;;;;4970679;28;20129;-83
2023/07/23 07:34:48;;;;;;;26.65;14.43;;;15.60;1.00;;;;;;4981867;28;20417;-83
2023/07/23 07:37:14;;;;;;;23.38;13.20;;;15.60;1.00;;;;;;4945956;28;20517;-80
2023/07/23 07:39:40;;;;;;;28.30;15.20;;;15.30;1.00;;;;;;4975366;28;20034;-78
2023/07/23 07:42:06;;;;;;;27.33;15.38;;;15.80;1.00;;;;;;4964095;28;20034;-77
2023/07/23 07:44:32;;;;;;;27.65;15.43;;;15.40;1.00;;;;;;4975510;28;20045;-76
2023/07/23 07:46:58;;;;;;;27.70;15.90;;;16.00;1.00;;;;;;4966953;28;20043;-75
2023/07/23 07:49:24;;;;;;;31.73;17.00;;;15.90;1.00;;;;;;4975269;28;20046;-74
2023/07/23 07:51:50;;;;;;;25.25;14.95;;;;;;;;;;4976054;28;20463;-74
2023/07/23 07:54:16;;;;;;;27.88;15.13;;;15.90;1.00;;;;;;4974824;28;20130;-73
2023/07/23 07:56:43;;;;;;;22.15;14.45;;;15.90;1.00;;;;;;4967645;28;20122;-73
2023/07/23 07:59:10;;;;;;;27.73;16.33;;;16.20;1.00;;;;;;4967415;28;20067;-73
2023/07/23 08:01:36;;;;;;;28.35;17.73;;;15.40;1.00;;;;;;4967176;28;20035;-73
2023/07/23 08:04:03;;;;;;;28.67;17.10;;;15.50;1.00;;;;;;4966462;28;20420;-73
2023/07/23 08:06:31;;;;;;;27.67;17.17;;;16.00;1.00;;;;;;4972359;28;20039;-73
2023/07/23 08:08:58;;;;;;;25.73;17.52;;;15.10;1.00;;;;;;4971292;28;20043;-72
2023/07/23 08:11:25;;;;;;;28.67;18.85;;;16.30;1.00;;;;;;4966666;28;20035;-73
2023/07/23 08:13:51;;;;;;;26.58;18.92;;;15.80;1.00;;;;;;4973356;28;20113;-73
2023/07/23 08:16:17;;;;;;;28.38;19.02;;;16.30;1.00;;;;;;4965750;28;20218;-72
2023/07/23 08:18:44;;;;;;;28.25;20.33;;;15.80;1.00;;;;;;4970890;28;20066;-73
2023/07/23 08:21:10;;;;;;;26.73;20.05;;;16.10;1.00;;;;;;4969532;28;20127;-72
2023/07/23 08:23:36;;;;;;;25.02;17.10;;;16.00;1.00;;;;;;4969092;28;20046;-72
2023/07/23 08:26:05;;;;;;;22.75;17.30;;;16.10;1.00;;;;;;4965888;28;20046;-72
2023/07/23 08:28:37;;;;;;;22.13;17.65;;;16.20;1.00;;;;;;4968669;28;20554;-72
2023/07/23 08:31:03;;;;;;;21.52;16.40;;;16.10;1.00;;;;;;4966622;28;20043;-72
2023/07/23 08:33:30;;;;;;;21.70;15.93;;;15.80;1.00;;;;;;4969604;28;20046;-72
2023/07/23 08:35:57;;;;;;;20.52;15.23;;;16.00;1.00;;;;;;4967940;28;20039;-71
2023/07/23 08:38:25;;;;;;;19.73;15.13;;;15.40;1.00;;;;;;4966152;28;20046;-71
2023/07/23 08:41:02;;;;;;;20.90;14.52;;;15.60;99.90;;;;;;4976529;28;20148;-71
2023/07/23 08:43:38;;;;;;;21.75;17.17;;;15.90;99.90;;;;;;4992601;28;20342;-72
2023/07/23 08:46:20;;;;;;;22.10;17.35;;;15.40;99.90;;;;;;4972873;28;20046;-71
2023/07/23 08:49:06;;;;;;;22.40;16.65;;;15.70;99.90;;;;;;4971697;28;20460;-71
2023/07/23 08:51:49;;;;;;;23.23;17.88;;;16.10;99.90;;;;;;4972395;28;20049;-71
2023/07/23 08:54:17;;;;;;;25.60;18.23;;;15.60;99.90;;;;;;4964330;28;20038;-71
2023/07/23 08:56:44;;;;;;;23.33;19.73;;;16.10;99.90;;;;;;4972590;28;20039;-71
2023/07/23 08:59:09;;;;;;;24.20;18.00;;;16.20;99.90;;;;;;4971246;28;20247;-71
2023/07/23 09:01:38;;;;;;;22.20;17.70;;;16.00;99.90;;;;;;4964016;28;20035;-71
2023/07/23 09:04:09;;;;;;;24.20;17.58;;;15.90;99.90;;;;;;4974139;28;20100;-71
2023/07/23 09:06:35;;;;;;;24.48;17.92;;;15.90;99.90;;;;;;4975218;28;20050;-71
2023/07/23 09:09:08;;;;;;;22.70;17.73;;;15.90;99.90;;;;;;4971526;28;20046;-71
2023/07/23 09:11:35;;;;;;;26.00;17.48;;;15.60;99.90;;;;;;4967974;28;20045;-71
2023/07/23 09:14:12;;;;;;;20.77;16.25;;;15.60;99.90;;;;;;4972515;28;20082;-71
2023/07/23 09:16:39;;;;;;;21.17;15.43;;;16.10;99.90;;;;;;4965421;28;20039;-71
2023/07/23 09:19:09;;;;;;;25.10;16.92;;;16.30;99.90;;;;;;4966831;28;20073;-71
2023/07/23 09:21:36;;;;;;;23.88;17.98;;;15.60;99.90;;;;;;4971862;28;20039;-71
2023/07/23 09:24:04;;;;;;;23.70;18.13;;;16.00;99.90;;;;;;4969478;28;20050;-71
2023/07/23 09:26:30;;;;;;;25.30;17.02;;;15.80;99.90;;;;;;4974051;28;20125;-72
2023/07/23 09:28:59;;;;;;;24.80;17.58;;;16.30;99.90;;;;;;4969498;28;20162;-71
2023/07/23 09:31:31;;;;;;;29.17;20.60;;;15.80;99.90;;;;;;4976258;28;20128;-71
2023/07/23 09:33:59;;;;;;;22.23;17.95;;;16.00;99.90;;;;;;4964751;28;20074;-71
2023/07/23 09:36:26;;;;;;;22.67;16.42;;;16.20;99.90;;;;;;4967634;28;20058;-70
2023/07/23 09:39:12;;;;;;;24.00;17.58;;;15.80;99.90;;;;;;4972995;28;20081;-70
2023/07/23 09:41:38;;;;;;;23.05;16.05;;;16.60;99.90;;;;;;4964398;28;20047;-70
2023/07/23 09:44:16;;;;;;;21.48;16.08;;;16.50;99.90;;;;;;4967232;28;20038;-70
2023/07/23 09:46:46;;;;;;;25.15;17.45;;;16.30;99.90;;;;;;4970954;28;20396;-70
2023/07/23 09:49:13;;;;;;;21.55;17.15;;;16.30;99.90;;;;;;4972563;28;20126;-70
2023/07/23 09:51:39;;;;;;;24.63;16.50;;;16.40;99.90;;;;;;4970629;28;20077;-70
2023/07/23 09:54:05;;;;;;;23.95;18.13;;;16.40;99.90;;;;;;4971951;28;20046;-70
2023/07/23 09:56:33;;;;;;;25.17;19.25;;;16.20;99.90;;;;;;4967817;28;20035;-69
2023/07/23 09:59:00;;;;;;;23.15;17.63;;;16.20;99.90;;;;;;4968456;28;20046;-70
2023/07/23 10:01:28;;;;;;;24.35;16.85;;;16.30;99.90;;;;;;4972246;28;20480;-69
2023/07/23 10:03:54;;;;;;;23.60;17.95;;;16.40;99.90;;;;;;4971746;28;20360;-69
2023/07/23 10:06:21;;;;;;;20.85;16.98;;;16.60;99.90;;;;;;4972037;28;20051;-69
2023/07/23 10:08:48;;;;;;;23.42;16.15;;;16.50;99.90;;;;;;4972020;28;20042;-70
2023/07/23 10:11:16;;;;;;;22.70;17.38;;;16.40;99.90;;;;;;4971280;28;20428;-72
2023/07/23 10:13:42;;;;;;;23.35;15.88;;;16.30;99.90;;;;;;4963943;28;20043;-70
2023/07/23 10:16:28;;;;;;;20.80;16.30;;;16.60;77.90;;;;;;4964573;28;20046;-68
2023/07/23 10:18:56;;;;;;;25.52;17.80;;;16.20;90.50;;;;;;4969098;28;20037;-72
2023/07/23 10:21:22;;;;;;;23.08;16.90;;;16.50;84.80;;;;;;4961038;28;20042;-70
2023/07/23 10:23:55;;;;;;;23.30;15.57;;;16.60;99.90;;;;;;4974158;28;20412;-70
2023/07/23 10:26:21;;;;;;;22.05;16.30;;;16.20;84.80;;;;;;4966100;28;20049;-69
2023/07/23 10:29:05;;;;;;;19.98;15.07;;;16.60;43.40;;;;;;4968115;28;20042;-69
2023/07/23 10:31:31;;;;;;;24.38;16.70;;;16.80;31.80;;;;;;4961259;28;20043;-69
2023/07/23 10:33:57;;;;;;;23.00;15.55;;;16.40;75.40;;;;;;4972629;28;20097;-69
2023/07/23 10:36:23;;;;;;;21.70;15.63;;;16.60;37.90;;;;;;4973481;28;20105;-69
2023/07/23 10:39:15;;;;;;;21.27;15.60;;;16.90;13.40;;;;;;4971112;28;20046;-69
2023/07/23 10:41:55;;;;;;;19.52;15.05;;;17.40;12.20;;;;;;4971679;28;20042;-69
2023/07/23 10:44:28;;;;;;;21.13;14.73;;;17.00;1.00;;;;;;4966143;28;20041;-69
2023/07/23 10:46:57;;;;;;;19.55;15.13;;;16.90;1.00;;;;;;4966950;28;20043;-69
2023/07/23 10:49:26;;;;;;;21.38;15.25;;;17.00;1.00;;;;;;4957105;28;20071;-69
2023/07/23 10:51:53;;;;;;;21.38;15.50;;;17.00;1.00;;;;;;4969263;28;20556;-69
2023/07/23 10:54:20;;;;;;;16.98;13.45;;;17.60;11.90;;;;;;4966782;28;20043;-69
2023/07/23 10:56:48;;;;;;;18.63;14.45;;;16.90;1.00;;;;;;4970842;28;20050;-69
2023/07/23 10:59:16;;;;;;;22.10;14.65;;;17.00;1.00;;;;;;4973945;28;20035;-69
2023/07/23 11:01:48;;;;;;;20.95;15.15;;;17.70;1.00;;;;;;4971927;28;20396;-69
2023/07/23 11:04:23;;;;;;;20.73;15.75;;;17.80;1.00;;;;;;4968663;28;20117;-69
2023/07/23 11:07:04;;;;;;;22.17;14.30;;;18.00;1.00;;;;;;4971391;28;20648;-69
2023/07/23 11:09:32;;;;;;;22.85;15.30;;;17.60;1.00;;;;;;4971669;28;20065;-70
2023/07/23 11:11:59;;;;;;;19.88;14.05;;;17.20;1.00;;;;;;4971450;28;20042;-69
2023/07/23 11:14:29;;;;;;;24.55;15.25;;;17.10;1.00;;;;;;4969801;28;20140;-69
2023/07/23 11:16:59;;;;;;;20.70;14.43;;;17.00;1.00;;;;;;4976540;28;20085;-69
2023/07/23 11:19:26;;;;;;;20.52;15.48;;;17.10;1.00;;;;;;4970359;28;20138;-70
2023/07/23 11:21:57;;;;;;;21.20;15.18;;;17.30;52.50;;;;;;4972067;28;20035;-69
2023/07/23 11:24:24;;;;;;;22.48;15.93;;;17.30;90.70;;;;;;4970833;28;20042;-69
2023/07/23 11:26:52;;;;;;;22.50;16.90;;;17.00;77.80;;;;;;4969584;28;20081;-70
2023/07/23 11:29:18;;;;;;;22.05;16.33;;;16.80;96.70;;;;;;4975640;28;20438;-70
2023/07/23 11:31:45;;;;;;;20.77;16.38;;;17.00;99.90;;;;;;4973689;28;20042;-69
2023/07/23 11:34:12;;;;;;;19.88;15.45;;;17.10;99.90;;;;;;4968913;28;20048;-70
2023/07/23 11:36:38;;;;;;;21.92;16.17;;;17.30;99.90;;;;;;4971662;28;20050;-69
2023/07/23 11:39:05;;;;;;;21.88;16.25;;;17.00;99.90;;;;;;4979191;28;20073;-70
2023/07/23 11:41:34;;;;;;;21.08;16.63;;;16.90;99.90;;;;;;4972901;28;20031;-70
2023/07/23 11:44:03;;;;;;;20.77;16.35;;;16.60;99.90;;;;;;4967450;28;20049;-70
2023/07/23 11:46:33;;;;;;;23.20;15.88;;;16.60;99.90;;;;;;4967238;28;20047;-70
2023/07/23 11:49:00;;;;;;;21.33;15.43;;;17.00;99.90;;;;;;4969428;28;20101;-70
2023/07/23 11:51:28;;;;;;;18.60;14.95;;;17.30;99.90;;;;;;4964158;28;20489;-70
2023/07/23 11:54:07;;;;;;;18.33;14.35;;;16.90;87.10;;;;;;4965499;28;20035;-70
2023/07/23 11:56:46;;;;;;;19.38;13.68;;;17.60;32.00;;;;;;4968323;28;20043;-70
2023/07/23 11:59:14;;;;;;;17.05;13.65;;;17.20;19.00;;;;;;4979250;28;20102;-70
2023/07/23 12:01:40;;;;;;;22.17;16.08;;;16.90;44.90;;;;;;4975581;28;20062;-70
2023/07/23 12:04:08;;;;;;;19.20;13.32;;;16.90;94.80;;;;;;4968097;28;20039;-70
2023/07/23 12:06:39;;;;;;;21.83;15.55;;;17.10;99.90;;;;;;4964621;28;20039;-70
2023/07/23 12:09:09;;;;;;;20.55;16.40;;;17.20;99.90;;;;;;4965136;28;20036;-70
2023/07/23 12:11:43;;;;;;;20.60;15.32;;;17.10;99.90;;;;;;4970854;28;20485;-69
2023/07/23 12:14:13;;;;;;;20.20;14.48;;;17.00;99.90;;;;;;4963504;28;20039;-70
2023/07/23 12:16:46;;;;;;;18.00;13.93;;;17.30;99.90;;;;;;4963797;28;20053;-69
2023/07/23 12:19:19;;;;;;;19.67;14.40;;;17.70;99.90;;;;;;4965272;28;20109;-69
2023/07/23 12:22:03;;;;;;;20.30;15.13;;;16.90;99.90;;;;;;4960524;28;20031;-69
2023/07/23 12:24:30;;;;;;;19.23;15.20;;;17.50;99.90;;;;;;4965933;28;20540;-70
2023/07/23 12:26:56;;;;;;;17.80;13.75;;;17.20;99.90;;;;;;4970824;28;20081;-70
2023/07/23 12:29:23;;;;;;;17.95;14.85;;;17.10;99.90;;;;;;4962215;28;20429;-70
2023/07/23 12:32:13;;;;;;;17.88;14.68;;;17.00;99.90;;;;;;4970408;28;20073;-70
2023/07/23 12:34:47;;;;;;;16.25;13.43;;;17.80;99.90;;;;;;4971615;28;20049;-70
2023/07/23 12:37:15;;;;;;;16.83;12.98;;;17.80;99.90;;;;;;4958846;28;20520;-70